Portada
METAR-TAF:

METAR-TAF

Aeropuertos :

Crystal Airport

Minneapolis / Crystal, Minnesota, Estados Unidos

latitud: 45-03-45N, longitud: 093-21-03W, altitud: 264 m

Observación

El informe se hizo hace 39 minutos, a las 00:53 UTC
Viento 16 kt del oeste-noroeste con ráfagas de 28 kt
Temperatura 21°C
Humedad 38%
Presión 1013 hPa
Visibilidad: 16.1 km
Cielo despejado

METAR: KMIC 290053Z AUTO 30016G28KT 10SM CLR 21/06 A2992 RMK AO2 PK WND 31029/0011 SLP130 T02110061

Hora: 20:32 (01:32 UTC)


TAF: falta

Observaciones y pronósticos meteorológicos de más de 4000 aeropuertos (mensajes METAR y TAF).

Los puntos amarillos y rojos representan las estaciones disponibles.

Ponga el ratón en el punto deseado para ver el nombre de la estación.

Haga clic para ver las observaciones y los pronósticos meteorológicos.

Para cambiar el mapa : haga clic en los botones verdes con una cruz de color negro para hacer un zoom, en el botón verde con un guión para alejar o en las flechas verdes para mapas adyacentes.


METAR-TAF: